sensor_id;sensor_type;location;lat;lon;timestamp;temperature;humidity
19945;DHT22;10134;50.952;6.930;2024-01-06T00:01:31;8.60;99.90
19945;DHT22;10134;50.952;6.930;2024-01-06T00:03:59;8.60;99.90
19945;DHT22;10134;50.952;6.930;2024-01-06T00:06:30;8.60;99.90
19945;DHT22;10134;50.952;6.930;2024-01-06T00:08:58;8.60;99.90
19945;DHT22;10134;50.952;6.930;2024-01-06T00:11:27;8.60;99.90
19945;DHT22;10134;50.952;6.930;2024-01-06T00:13:56;8.60;99.90
19945;DHT22;10134;50.952;6.930;2024-01-06T00:16:24;8.70;99.90
19945;DHT22;10134;50.952;6.930;2024-01-06T00:18:58;8.70;99.90
19945;DHT22;10134;50.952;6.930;2024-01-06T00:21:30;8.70;99.90
19945;DHT22;10134;50.952;6.930;2024-01-06T00:23:58;8.70;99.90
19945;DHT22;10134;50.952;6.930;2024-01-06T00:26:27;8.70;99.90
19945;DHT22;10134;50.952;6.930;2024-01-06T00:28:55;8.70;99.90
19945;DHT22;10134;50.952;6.930;2024-01-06T00:31:24;8.70;99.90
19945;DHT22;10134;50.952;6.930;2024-01-06T00:33:53;8.70;99.90
19945;DHT22;10134;50.952;6.930;2024-01-06T00:36:22;8.70;99.90
19945;DHT22;10134;50.952;6.930;2024-01-06T00:38:52;8.60;99.90
19945;DHT22;10134;50.952;6.930;2024-01-06T00:41:20;8.70;99.90
19945;DHT22;10134;50.952;6.930;2024-01-06T00:43:49;8.70;99.90
19945;DHT22;10134;50.952;6.930;2024-01-06T00:46:18;8.70;99.90
19945;DHT22;10134;50.952;6.930;2024-01-06T00:48:46;8.70;99.90
19945;DHT22;10134;50.952;6.930;2024-01-06T00:51:15;8.70;99.90
19945;DHT22;10134;50.952;6.930;2024-01-06T00:53:44;8.70;99.90
19945;DHT22;10134;50.952;6.930;2024-01-06T00:56:14;8.70;99.90
19945;DHT22;10134;50.952;6.930;2024-01-06T00:58:42;8.70;99.90
19945;DHT22;10134;50.952;6.930;2024-01-06T01:01:11;8.70;99.90
19945;DHT22;10134;50.952;6.930;2024-01-06T01:03:40;8.70;99.90
19945;DHT22;10134;50.952;6.930;2024-01-06T01:06:09;8.70;99.90
19945;DHT22;10134;50.952;6.930;2024-01-06T01:08:37;8.60;99.90
19945;DHT22;10134;50.952;6.930;2024-01-06T01:11:06;8.60;99.90
19945;DHT22;10134;50.952;6.930;2024-01-06T01:13:36;8.70;99.90
19945;DHT22;10134;50.952;6.930;2024-01-06T01:16:05;8.60;99.90
19945;DHT22;10134;50.952;6.930;2024-01-06T01:18:34;8.60;99.90
19945;DHT22;10134;50.952;6.930;2024-01-06T01:21:03;8.60;99.90
19945;DHT22;10134;50.952;6.930;2024-01-06T01:23:31;8.60;99.90
19945;DHT22;10134;50.952;6.930;2024-01-06T01:26:00;8.60;99.90
19945;DHT22;10134;50.952;6.930;2024-01-06T01:28:28;8.60;99.90
19945;DHT22;10134;50.952;6.930;2024-01-06T01:30:59;8.60;99.90
19945;DHT22;10134;50.952;6.930;2024-01-06T01:33:28;8.60;99.90
19945;DHT22;10134;50.952;6.930;2024-01-06T01:35:57;8.50;99.90
19945;DHT22;10134;50.952;6.930;2024-01-06T01:38:29;8.50;99.90
19945;DHT22;10134;50.952;6.930;2024-01-06T01:40:58;8.50;99.90
19945;DHT22;10134;50.952;6.930;2024-01-06T01:43:27;8.50;99.90
19945;DHT22;10134;50.952;6.930;2024-01-06T01:45:57;8.50;99.90
19945;DHT22;10134;50.952;6.930;2024-01-06T01:48:27;8.50;99.90
19945;DHT22;10134;50.952;6.930;2024-01-06T01:50:56;8.50;99.90
19945;DHT22;10134;50.952;6.930;2024-01-06T01:53:26;8.50;99.90
19945;DHT22;10134;50.952;6.930;2024-01-06T01:55:56;8.50;99.90
19945;DHT22;10134;50.952;6.930;2024-01-06T01:58:24;8.50;99.90
19945;DHT22;10134;50.952;6.930;2024-01-06T02:00:53;8.50;99.90
19945;DHT22;10134;50.952;6.930;2024-01-06T02:03:22;8.50;99.90
19945;DHT22;10134;50.952;6.930;2024-01-06T02:05:54;8.50;99.90
19945;DHT22;10134;50.952;6.930;2024-01-06T02:08:23;8.50;99.90
19945;DHT22;10134;50.952;6.930;2024-01-06T02:10:53;8.50;99.90
19945;DHT22;10134;50.952;6.930;2024-01-06T02:13:23;8.50;99.90
19945;DHT22;10134;50.952;6.930;2024-01-06T02:15:52;8.50;99.90
19945;DHT22;10134;50.952;6.930;2024-01-06T02:18:21;8.50;99.90
19945;DHT22;10134;50.952;6.930;2024-01-06T02:20:50;8.50;99.90
19945;DHT22;10134;50.952;6.930;2024-01-06T02:23:22;8.50;99.90
19945;DHT22;10134;50.952;6.930;2024-01-06T02:25:51;8.50;99.90
19945;DHT22;10134;50.952;6.930;2024-01-06T02:28:20;8.50;99.90
19945;DHT22;10134;50.952;6.930;2024-01-06T02:30:49;8.50;99.90
19945;DHT22;10134;50.952;6.930;2024-01-06T02:33:19;8.50;99.90
19945;DHT22;10134;50.952;6.930;2024-01-06T02:35:53;8.50;99.90
19945;DHT22;10134;50.952;6.930;2024-01-06T02:38:23;8.50;99.90
19945;DHT22;10134;50.952;6.930;2024-01-06T02:40:52;8.50;99.90
19945;DHT22;10134;50.952;6.930;2024-01-06T02:43:21;8.50;99.90
19945;DHT22;10134;50.952;6.930;2024-01-06T02:45:50;8.50;99.90
19945;DHT22;10134;50.952;6.930;2024-01-06T02:48:19;8.50;99.90
19945;DHT22;10134;50.952;6.930;2024-01-06T02:50:48;8.50;99.90
19945;DHT22;10134;50.952;6.930;2024-01-06T02:53:17;8.50;99.90
19945;DHT22;10134;50.952;6.930;2024-01-06T02:55:47;8.50;99.90
19945;DHT22;10134;50.952;6.930;2024-01-06T02:58:16;8.50;99.90
19945;DHT22;10134;50.952;6.930;2024-01-06T03:00:44;8.50;99.90
19945;DHT22;10134;50.952;6.930;2024-01-06T03:03:13;8.50;99.90
19945;DHT22;10134;50.952;6.930;2024-01-06T03:05:46;8.50;99.90
19945;DHT22;10134;50.952;6.930;2024-01-06T03:08:17;8.50;99.90
19945;DHT22;10134;50.952;6.930;2024-01-06T03:10:47;8.50;99.90
19945;DHT22;10134;50.952;6.930;2024-01-06T03:13:16;8.50;99.90
19945;DHT22;10134;50.952;6.930;2024-01-06T03:15:44;8.50;99.90
19945;DHT22;10134;50.952;6.930;2024-01-06T03:18:13;8.50;99.90
19945;DHT22;10134;50.952;6.930;2024-01-06T03:20:42;8.50;99.90
19945;DHT22;10134;50.952;6.930;2024-01-06T03:23:11;8.50;99.90
19945;DHT22;10134;50.952;6.930;2024-01-06T03:25:40;8.50;99.90
19945;DHT22;10134;50.952;6.930;2024-01-06T03:28:10;8.50;99.90
19945;DHT22;10134;50.952;6.930;2024-01-06T03:30:38;8.50;99.90
19945;DHT22;10134;50.952;6.930;2024-01-06T03:33:07;8.50;99.90
19945;DHT22;10134;50.952;6.930;2024-01-06T03:35:36;8.50;99.90
19945;DHT22;10134;50.952;6.930;2024-01-06T03:38:05;8.50;99.90
19945;DHT22;10134;50.952;6.930;2024-01-06T03:40:34;8.50;99.90
19945;DHT22;10134;50.952;6.930;2024-01-06T03:43:03;8.50;99.90
19945;DHT22;10134;50.952;6.930;2024-01-06T03:45:33;8.50;99.90
19945;DHT22;10134;50.952;6.930;2024-01-06T03:48:02;8.50;99.90
19945;DHT22;10134;50.952;6.930;2024-01-06T03:50:31;8.50;99.90
19945;DHT22;10134;50.952;6.930;2024-01-06T03:52:59;8.50;99.90
19945;DHT22;10134;50.952;6.930;2024-01-06T03:55:28;8.50;99.90
19945;DHT22;10134;50.952;6.930;2024-01-06T03:57:57;8.50;99.90
19945;DHT22;10134;50.952;6.930;2024-01-06T04:00:25;8.50;99.90
19945;DHT22;10134;50.952;6.930;2024-01-06T04:02:56;8.50;99.90
19945;DHT22;10134;50.952;6.930;2024-01-06T04:05:24;8.50;99.90
19945;DHT22;10134;50.952;6.930;2024-01-06T04:07:53;8.50;99.90
19945;DHT22;10134;50.952;6.930;2024-01-06T04:10:22;8.50;99.90
19945;DHT22;10134;50.952;6.930;2024-01-06T04:12:51;8.50;99.90
19945;DHT22;10134;50.952;6.930;2024-01-06T04:15:19;8.50;99.90
19945;DHT22;10134;50.952;6.930;2024-01-06T04:17:49;8.50;99.90
19945;DHT22;10134;50.952;6.930;2024-01-06T04:20:21;8.40;99.90
19945;DHT22;10134;50.952;6.930;2024-01-06T04:22:50;8.40;99.90
19945;DHT22;10134;50.952;6.930;2024-01-06T04:25:18;8.50;99.90
19945;DHT22;10134;50.952;6.930;2024-01-06T04:27:48;8.40;99.90
19945;DHT22;10134;50.952;6.930;2024-01-06T04:30:17;8.40;99.90
19945;DHT22;10134;50.952;6.930;2024-01-06T04:32:48;8.40;99.90
19945;DHT22;10134;50.952;6.930;2024-01-06T04:35:17;8.40;99.90
19945;DHT22;10134;50.952;6.930;2024-01-06T04:37:47;8.40;99.90
19945;DHT22;10134;50.952;6.930;2024-01-06T04:40:17;8.50;99.90
19945;DHT22;10134;50.952;6.930;2024-01-06T04:42:46;8.50;99.90
19945;DHT22;10134;50.952;6.930;2024-01-06T04:45:16;8.50;99.90
19945;DHT22;10134;50.952;6.930;2024-01-06T04:47:46;8.50;99.90
19945;DHT22;10134;50.952;6.930;2024-01-06T04:50:15;8.50;99.90
19945;DHT22;10134;50.952;6.930;2024-01-06T04:52:44;8.50;99.90
19945;DHT22;10134;50.952;6.930;2024-01-06T04:55:14;8.50;99.90
19945;DHT22;10134;50.952;6.930;2024-01-06T04:57:43;8.50;99.90
19945;DHT22;10134;50.952;6.930;2024-01-06T05:00:13;8.50;99.90
19945;DHT22;10134;50.952;6.930;2024-01-06T05:02:41;8.50;99.90
19945;DHT22;10134;50.952;6.930;2024-01-06T05:05:10;8.50;99.90
19945;DHT22;10134;50.952;6.930;2024-01-06T05:07:39;8.50;99.90
19945;DHT22;10134;50.952;6.930;2024-01-06T05:10:08;8.50;99.90
19945;DHT22;10134;50.952;6.930;2024-01-06T05:12:38;8.50;99.90
19945;DHT22;10134;50.952;6.930;2024-01-06T05:15:09;8.50;99.90
19945;DHT22;10134;50.952;6.930;2024-01-06T05:17:38;8.50;99.90
19945;DHT22;10134;50.952;6.930;2024-01-06T05:20:07;8.50;99.90
19945;DHT22;10134;50.952;6.930;2024-01-06T05:22:36;8.50;99.90
19945;DHT22;10134;50.952;6.930;2024-01-06T05:25:05;8.50;99.90
19945;DHT22;10134;50.952;6.930;2024-01-06T05:27:34;8.50;99.90
19945;DHT22;10134;50.952;6.930;2024-01-06T05:30:06;8.50;99.90
19945;DHT22;10134;50.952;6.930;2024-01-06T05:32:37;8.50;99.90
19945;DHT22;10134;50.952;6.930;2024-01-06T05:35:06;8.40;99.90
19945;DHT22;10134;50.952;6.930;2024-01-06T05:37:35;8.40;99.90
19945;DHT22;10134;50.952;6.930;2024-01-06T05:40:07;8.40;99.90
19945;DHT22;10134;50.952;6.930;2024-01-06T05:42:36;8.40;99.90
19945;DHT22;10134;50.952;6.930;2024-01-06T05:45:09;8.40;99.90
19945;DHT22;10134;50.952;6.930;2024-01-06T05:47:38;8.40;99.90
19945;DHT22;10134;50.952;6.930;2024-01-06T05:50:08;8.40;99.90
19945;DHT22;10134;50.952;6.930;2024-01-06T05:52:38;8.40;99.90
19945;DHT22;10134;50.952;6.930;2024-01-06T05:55:07;8.40;99.90
19945;DHT22;10134;50.952;6.930;2024-01-06T05:57:36;8.30;99.90
19945;DHT22;10134;50.952;6.930;2024-01-06T06:00:10;8.30;99.90
19945;DHT22;10134;50.952;6.930;2024-01-06T06:02:39;8.20;99.90
19945;DHT22;10134;50.952;6.930;2024-01-06T06:05:08;8.20;99.90
19945;DHT22;10134;50.952;6.930;2024-01-06T06:07:37;8.20;99.90
19945;DHT22;10134;50.952;6.930;2024-01-06T06:10:08;8.10;99.90
19945;DHT22;10134;50.952;6.930;2024-01-06T06:12:38;8.10;99.90
19945;DHT22;10134;50.952;6.930;2024-01-06T06:15:09;8.10;99.90
19945;DHT22;10134;50.952;6.930;2024-01-06T06:17:39;8.10;99.90
19945;DHT22;10134;50.952;6.930;2024-01-06T06:20:08;8.10;99.90
19945;DHT22;10134;50.952;6.930;2024-01-06T06:22:37;8.00;99.90
19945;DHT22;10134;50.952;6.930;2024-01-06T06:25:07;8.00;99.90
19945;DHT22;10134;50.952;6.930;2024-01-06T06:27:36;8.00;99.90
19945;DHT22;10134;50.952;6.930;2024-01-06T06:30:09;8.00;99.90
19945;DHT22;10134;50.952;6.930;2024-01-06T06:32:38;8.00;99.90
19945;DHT22;10134;50.952;6.930;2024-01-06T06:35:07;7.90;99.90
19945;DHT22;10134;50.952;6.930;2024-01-06T06:37:36;7.90;99.90
19945;DHT22;10134;50.952;6.930;2024-01-06T06:40:06;7.90;99.90
19945;DHT22;10134;50.952;6.930;2024-01-06T06:42:35;7.80;99.90
19945;DHT22;10134;50.952;6.930;2024-01-06T06:45:05;7.80;99.90
19945;DHT22;10134;50.952;6.930;2024-01-06T06:47:35;7.80;99.90
19945;DHT22;10134;50.952;6.930;2024-01-06T06:50:04;7.80;99.90
19945;DHT22;10134;50.952;6.930;2024-01-06T06:52:33;7.70;99.90
19945;DHT22;10134;50.952;6.930;2024-01-06T06:55:02;7.70;99.90
19945;DHT22;10134;50.952;6.930;2024-01-06T06:57:31;7.70;99.90
19945;DHT22;10134;50.952;6.930;2024-01-06T07:00:00;7.70;99.90
19945;DHT22;10134;50.952;6.930;2024-01-06T07:02:28;7.70;99.90
19945;DHT22;10134;50.952;6.930;2024-01-06T07:04:58;7.70;99.90
19945;DHT22;10134;50.952;6.930;2024-01-06T07:07:27;7.70;99.90
19945;DHT22;10134;50.952;6.930;2024-01-06T07:09:56;7.70;99.90
19945;DHT22;10134;50.952;6.930;2024-01-06T07:12:25;7.60;99.90
19945;DHT22;10134;50.952;6.930;2024-01-06T07:14:54;7.60;99.90
19945;DHT22;10134;50.952;6.930;2024-01-06T07:17:23;7.60;99.90
19945;DHT22;10134;50.952;6.930;2024-01-06T07:19:52;7.60;99.90
19945;DHT22;10134;50.952;6.930;2024-01-06T07:22:22;7.60;99.90
19945;DHT22;10134;50.952;6.930;2024-01-06T07:24:51;7.60;99.90
19945;DHT22;10134;50.952;6.930;2024-01-06T07:27:20;7.60;99.90
19945;DHT22;10134;50.952;6.930;2024-01-06T07:29:49;7.60;99.90
19945;DHT22;10134;50.952;6.930;2024-01-06T07:32:17;7.60;99.90
19945;DHT22;10134;50.952;6.930;2024-01-06T07:34:46;7.60;99.90
19945;DHT22;10134;50.952;6.930;2024-01-06T07:37:15;7.60;99.90
19945;DHT22;10134;50.952;6.930;2024-01-06T07:39:45;7.60;99.90
19945;DHT22;10134;50.952;6.930;2024-01-06T07:42:14;7.60;99.90
19945;DHT22;10134;50.952;6.930;2024-01-06T07:44:42;7.60;99.90
19945;DHT22;10134;50.952;6.930;2024-01-06T07:47:11;7.60;99.90
19945;DHT22;10134;50.952;6.930;2024-01-06T07:49:40;7.60;99.90
19945;DHT22;10134;50.952;6.930;2024-01-06T07:52:09;7.60;99.90
19945;DHT22;10134;50.952;6.930;2024-01-06T07:54:38;7.50;99.90
19945;DHT22;10134;50.952;6.930;2024-01-06T07:57:08;7.50;99.90
19945;DHT22;10134;50.952;6.930;2024-01-06T07:59:38;7.50;99.90
19945;DHT22;10134;50.952;6.930;2024-01-06T08:02:07;7.50;99.90
19945;DHT22;10134;50.952;6.930;2024-01-06T08:04:36;7.50;99.90
19945;DHT22;10134;50.952;6.930;2024-01-06T08:07:05;7.50;99.90
19945;DHT22;10134;50.952;6.930;2024-01-06T08:09:33;7.40;99.90
19945;DHT22;10134;50.952;6.930;2024-01-06T08:12:06;7.40;99.90
19945;DHT22;10134;50.952;6.930;2024-01-06T08:14:37;7.40;99.90
19945;DHT22;10134;50.952;6.930;2024-01-06T08:17:05;7.40;99.90
19945;DHT22;10134;50.952;6.930;2024-01-06T08:19:34;7.40;99.90
19945;DHT22;10134;50.952;6.930;2024-01-06T08:22:03;7.40;99.90
19945;DHT22;10134;50.952;6.930;2024-01-06T08:24:32;7.40;99.90
19945;DHT22;10134;50.952;6.930;2024-01-06T08:27:01;7.40;99.90
19945;DHT22;10134;50.952;6.930;2024-01-06T08:29:29;7.40;99.90
19945;DHT22;10134;50.952;6.930;2024-01-06T08:32:00;7.40;99.90
19945;DHT22;10134;50.952;6.930;2024-01-06T08:34:29;7.40;99.90
19945;DHT22;10134;50.952;6.930;2024-01-06T08:37:00;7.40;99.90
19945;DHT22;10134;50.952;6.930;2024-01-06T08:39:28;7.40;99.90
19945;DHT22;10134;50.952;6.930;2024-01-06T08:41:57;7.40;99.90
19945;DHT22;10134;50.952;6.930;2024-01-06T08:44:29;7.40;99.90
19945;DHT22;10134;50.952;6.930;2024-01-06T08:46:57;7.40;99.90
19945;DHT22;10134;50.952;6.930;2024-01-06T08:49:27;7.40;99.90
19945;DHT22;10134;50.952;6.930;2024-01-06T08:51:57;7.40;99.90
19945;DHT22;10134;50.952;6.930;2024-01-06T08:54:26;7.40;99.90
19945;DHT22;10134;50.952;6.930;2024-01-06T08:56:55;7.40;99.90
19945;DHT22;10134;50.952;6.930;2024-01-06T08:59:24;7.40;99.90
19945;DHT22;10134;50.952;6.930;2024-01-06T09:01:53;7.40;99.90
19945;DHT22;10134;50.952;6.930;2024-01-06T09:04:22;7.40;99.90
19945;DHT22;10134;50.952;6.930;2024-01-06T09:06:52;7.30;99.90
19945;DHT22;10134;50.952;6.930;2024-01-06T09:09:20;7.30;99.90
19945;DHT22;10134;50.952;6.930;2024-01-06T09:11:50;7.30;99.90
19945;DHT22;10134;50.952;6.930;2024-01-06T09:14:19;7.30;99.90
19945;DHT22;10134;50.952;6.930;2024-01-06T09:16:48;7.30;99.90
19945;DHT22;10134;50.952;6.930;2024-01-06T09:19:17;7.30;99.90
19945;DHT22;10134;50.952;6.930;2024-01-06T09:21:46;7.30;99.90
19945;DHT22;10134;50.952;6.930;2024-01-06T09:24:16;7.30;99.90
19945;DHT22;10134;50.952;6.930;2024-01-06T09:26:45;7.30;99.90
19945;DHT22;10134;50.952;6.930;2024-01-06T09:29:13;7.30;99.90
19945;DHT22;10134;50.952;6.930;2024-01-06T09:31:43;7.30;99.90
19945;DHT22;10134;50.952;6.930;2024-01-06T09:34:12;7.30;99.90
19945;DHT22;10134;50.952;6.930;2024-01-06T09:36:41;7.30;99.90
19945;DHT22;10134;50.952;6.930;2024-01-06T09:39:09;7.40;99.90
19945;DHT22;10134;50.952;6.930;2024-01-06T09:41:39;7.30;99.90
19945;DHT22;10134;50.952;6.930;2024-01-06T09:44:09;7.30;99.90
19945;DHT22;10134;50.952;6.930;2024-01-06T09:46:42;7.30;99.90
19945;DHT22;10134;50.952;6.930;2024-01-06T09:49:11;7.30;99.90
19945;DHT22;10134;50.952;6.930;2024-01-06T09:51:41;7.20;99.90
19945;DHT22;10134;50.952;6.930;2024-01-06T09:54:12;7.20;99.90
19945;DHT22;10134;50.952;6.930;2024-01-06T09:56:45;7.20;99.90
19945;DHT22;10134;50.952;6.930;2024-01-06T09:59:14;7.20;99.90
19945;DHT22;10134;50.952;6.930;2024-01-06T10:01:43;7.20;99.90
19945;DHT22;10134;50.952;6.930;2024-01-06T10:04:12;7.20;99.90
19945;DHT22;10134;50.952;6.930;2024-01-06T10:06:47;7.20;99.90
19945;DHT22;10134;50.952;6.930;2024-01-06T10:09:17;7.30;99.90
19945;DHT22;10134;50.952;6.930;2024-01-06T10:11:47;7.30;99.90
19945;DHT22;10134;50.952;6.930;2024-01-06T10:14:16;7.30;99.90
19945;DHT22;10134;50.952;6.930;2024-01-06T10:16:46;7.30;99.90
19945;DHT22;10134;50.952;6.930;2024-01-06T10:19:16;7.30;99.90
19945;DHT22;10134;50.952;6.930;2024-01-06T10:21:45;7.30;99.90
19945;DHT22;10134;50.952;6.930;2024-01-06T10:24:14;7.30;99.90
19945;DHT22;10134;50.952;6.930;2024-01-06T10:26:43;7.30;99.90
19945;DHT22;10134;50.952;6.930;2024-01-06T10:29:14;7.30;99.90
19945;DHT22;10134;50.952;6.930;2024-01-06T10:31:43;7.30;99.90
19945;DHT22;10134;50.952;6.930;2024-01-06T10:34:14;7.20;99.90
19945;DHT22;10134;50.952;6.930;2024-01-06T10:36:44;7.20;99.90
19945;DHT22;10134;50.952;6.930;2024-01-06T10:39:13;7.20;99.90
19945;DHT22;10134;50.952;6.930;2024-01-06T10:41:43;7.20;99.90
19945;DHT22;10134;50.952;6.930;2024-01-06T10:44:14;7.20;99.90
19945;DHT22;10134;50.952;6.930;2024-01-06T10:46:44;7.20;99.90
19945;DHT22;10134;50.952;6.930;2024-01-06T10:49:14;7.20;99.90
19945;DHT22;10134;50.952;6.930;2024-01-06T10:51:44;7.20;99.90
19945;DHT22;10134;50.952;6.930;2024-01-06T10:54:14;7.20;99.90
19945;DHT22;10134;50.952;6.930;2024-01-06T10:56:45;7.20;99.90
19945;DHT22;10134;50.952;6.930;2024-01-06T10:59:15;7.30;99.90
19945;DHT22;10134;50.952;6.930;2024-01-06T11:01:44;7.30;99.90
19945;DHT22;10134;50.952;6.930;2024-01-06T11:04:14;7.30;99.90
19945;DHT22;10134;50.952;6.930;2024-01-06T11:06:44;7.30;99.90
19945;DHT22;10134;50.952;6.930;2024-01-06T11:09:19;7.30;99.90
19945;DHT22;10134;50.952;6.930;2024-01-06T11:11:50;7.30;99.90
19945;DHT22;10134;50.952;6.930;2024-01-06T11:14:22;7.30;99.90
19945;DHT22;10134;50.952;6.930;2024-01-06T11:16:53;7.30;99.90
19945;DHT22;10134;50.952;6.930;2024-01-06T11:19:42;7.30;99.90
19945;DHT22;10134;50.952;6.930;2024-01-06T11:22:27;7.30;99.90
19945;DHT22;10134;50.952;6.930;2024-01-06T11:25:04;7.30;99.90
19945;DHT22;10134;50.952;6.930;2024-01-06T11:27:38;7.30;99.90
19945;DHT22;10134;50.952;6.930;2024-01-06T11:30:19;7.30;99.90
19945;DHT22;10134;50.952;6.930;2024-01-06T11:32:51;7.30;99.90
19945;DHT22;10134;50.952;6.930;2024-01-06T11:35:21;7.30;99.90
19945;DHT22;10134;50.952;6.930;2024-01-06T11:37:53;7.30;99.90
19945;DHT22;10134;50.952;6.930;2024-01-06T11:40:24;7.30;99.90
19945;DHT22;10134;50.952;6.930;2024-01-06T11:42:59;7.30;99.90
19945;DHT22;10134;50.952;6.930;2024-01-06T11:45:29;7.30;99.90
19945;DHT22;10134;50.952;6.930;2024-01-06T11:48:00;7.30;99.90
19945;DHT22;10134;50.952;6.930;2024-01-06T11:50:31;7.30;99.90
19945;DHT22;10134;50.952;6.930;2024-01-06T11:53:01;7.30;99.90
19945;DHT22;10134;50.952;6.930;2024-01-06T11:55:30;7.30;99.90
19945;DHT22;10134;50.952;6.930;2024-01-06T11:58:01;7.30;99.90
19945;DHT22;10134;50.952;6.930;2024-01-06T12:00:33;7.30;99.90
19945;DHT22;10134;50.952;6.930;2024-01-06T12:03:04;7.30;99.90
19945;DHT22;10134;50.952;6.930;2024-01-06T12:05:33;7.30;99.90
19945;DHT22;10134;50.952;6.930;2024-01-06T12:08:04;7.30;99.90
19945;DHT22;10134;50.952;6.930;2024-01-06T12:10:35;7.30;99.90
19945;DHT22;10134;50.952;6.930;2024-01-06T12:13:06;7.30;99.90
19945;DHT22;10134;50.952;6.930;2024-01-06T12:15:38;7.30;99.90
19945;DHT22;10134;50.952;6.930;2024-01-06T12:18:08;7.30;99.90
19945;DHT22;10134;50.952;6.930;2024-01-06T12:20:38;7.20;99.90
19945;DHT22;10134;50.952;6.930;2024-01-06T12:23:07;7.20;99.90
19945;DHT22;10134;50.952;6.930;2024-01-06T12:25:35;7.20;99.90
19945;DHT22;10134;50.952;6.930;2024-01-06T12:28:07;7.20;99.90
19945;DHT22;10134;50.952;6.930;2024-01-06T12:30:39;7.20;99.90
19945;DHT22;10134;50.952;6.930;2024-01-06T12:33:09;7.20;99.90
19945;DHT22;10134;50.952;6.930;2024-01-06T12:35:38;7.20;99.90
19945;DHT22;10134;50.952;6.930;2024-01-06T12:38:08;7.20;99.90
19945;DHT22;10134;50.952;6.930;2024-01-06T12:40:38;7.20;99.90
19945;DHT22;10134;50.952;6.930;2024-01-06T12:43:08;7.20;99.90
19945;DHT22;10134;50.952;6.930;2024-01-06T12:45:38;7.20;99.90
19945;DHT22;10134;50.952;6.930;2024-01-06T12:48:07;7.20;99.90
19945;DHT22;10134;50.952;6.930;2024-01-06T12:50:36;7.20;99.90
19945;DHT22;10134;50.952;6.930;2024-01-06T12:53:05;7.20;99.90
19945;DHT22;10134;50.952;6.930;2024-01-06T12:55:34;7.20;99.90
19945;DHT22;10134;50.952;6.930;2024-01-06T12:58:03;7.20;99.90
19945;DHT22;10134;50.952;6.930;2024-01-06T13:00:32;7.20;99.90
19945;DHT22;10134;50.952;6.930;2024-01-06T13:03:05;7.10;99.90
19945;DHT22;10134;50.952;6.930;2024-01-06T13:05:36;7.10;99.90
19945;DHT22;10134;50.952;6.930;2024-01-06T13:08:05;7.10;99.90
19945;DHT22;10134;50.952;6.930;2024-01-06T13:10:34;7.10;99.90
19945;DHT22;10134;50.952;6.930;2024-01-06T13:13:03;7.10;99.90
19945;DHT22;10134;50.952;6.930;2024-01-06T13:15:33;7.10;99.90
19945;DHT22;10134;50.952;6.930;2024-01-06T13:18:02;7.10;99.90
19945;DHT22;10134;50.952;6.930;2024-01-06T13:20:32;7.10;99.90
19945;DHT22;10134;50.952;6.930;2024-01-06T13:23:01;7.10;99.90
19945;DHT22;10134;50.952;6.930;2024-01-06T13:25:36;7.10;99.90
19945;DHT22;10134;50.952;6.930;2024-01-06T13:28:09;7.00;99.90
19945;DHT22;10134;50.952;6.930;2024-01-06T13:30:37;7.00;99.90
19945;DHT22;10134;50.952;6.930;2024-01-06T13:33:07;7.00;99.90
19945;DHT22;10134;50.952;6.930;2024-01-06T13:35:38;7.00;99.90
19945;DHT22;10134;50.952;6.930;2024-01-06T13:38:07;7.00;99.90
19945;DHT22;10134;50.952;6.930;2024-01-06T13:40:36;6.90;99.90
19945;DHT22;10134;50.952;6.930;2024-01-06T13:43:05;7.00;99.90
19945;DHT22;10134;50.952;6.930;2024-01-06T13:45:36;6.90;99.90
19945;DHT22;10134;50.952;6.930;2024-01-06T13:48:06;6.90;99.90
19945;DHT22;10134;50.952;6.930;2024-01-06T13:50:38;7.00;99.90
19945;DHT22;10134;50.952;6.930;2024-01-06T13:53:07;6.90;99.90
19945;DHT22;10134;50.952;6.930;2024-01-06T13:55:36;6.90;99.90
19945;DHT22;10134;50.952;6.930;2024-01-06T13:58:04;6.90;99.90
19945;DHT22;10134;50.952;6.930;2024-01-06T14:00:33;6.90;99.90
19945;DHT22;10134;50.952;6.930;2024-01-06T14:03:02;6.90;99.90
19945;DHT22;10134;50.952;6.930;2024-01-06T14:05:32;6.90;99.90
19945;DHT22;10134;50.952;6.930;2024-01-06T14:08:02;6.90;99.90
19945;DHT22;10134;50.952;6.930;2024-01-06T14:10:31;6.90;99.90
19945;DHT22;10134;50.952;6.930;2024-01-06T14:13:00;6.90;99.90
19945;DHT22;10134;50.952;6.930;2024-01-06T14:15:29;6.90;99.90
19945;DHT22;10134;50.952;6.930;2024-01-06T14:18:00;6.90;99.90
19945;DHT22;10134;50.952;6.930;2024-01-06T14:20:29;6.90;99.90
19945;DHT22;10134;50.952;6.930;2024-01-06T14:22:59;6.90;99.90
19945;DHT22;10134;50.952;6.930;2024-01-06T14:25:29;6.90;99.90
19945;DHT22;10134;50.952;6.930;2024-01-06T14:27:58;6.90;99.90
19945;DHT22;10134;50.952;6.930;2024-01-06T14:30:27;6.90;99.90
19945;DHT22;10134;50.952;6.930;2024-01-06T14:32:56;6.80;99.90
19945;DHT22;10134;50.952;6.930;2024-01-06T14:35:25;6.80;99.90
19945;DHT22;10134;50.952;6.930;2024-01-06T14:37:54;6.80;99.90
19945;DHT22;10134;50.952;6.930;2024-01-06T14:40:24;6.80;99.90
19945;DHT22;10134;50.952;6.930;2024-01-06T14:42:54;6.80;99.90
19945;DHT22;10134;50.952;6.930;2024-01-06T14:45:27;6.70;99.90
19945;DHT22;10134;50.952;6.930;2024-01-06T14:47:56;6.70;99.90
19945;DHT22;10134;50.952;6.930;2024-01-06T14:50:25;6.60;99.90
19945;DHT22;10134;50.952;6.930;2024-01-06T14:52:54;6.60;99.90
19945;DHT22;10134;50.952;6.930;2024-01-06T14:55:22;6.60;99.90
19945;DHT22;10134;50.952;6.930;2024-01-06T14:57:51;6.60;99.90
19945;DHT22;10134;50.952;6.930;2024-01-06T15:00:21;6.60;99.90
19945;DHT22;10134;50.952;6.930;2024-01-06T15:02:50;6.60;99.90
19945;DHT22;10134;50.952;6.930;2024-01-06T15:05:18;6.50;99.90
19945;DHT22;10134;50.952;6.930;2024-01-06T15:07:47;6.60;99.90
19945;DHT22;10134;50.952;6.930;2024-01-06T15:10:16;6.50;99.90
19945;DHT22;10134;50.952;6.930;2024-01-06T15:12:46;6.50;99.90
19945;DHT22;10134;50.952;6.930;2024-01-06T15:15:15;6.50;99.90
19945;DHT22;10134;50.952;6.930;2024-01-06T15:17:45;6.40;99.90
19945;DHT22;10134;50.952;6.930;2024-01-06T15:20:14;6.40;99.90
19945;DHT22;10134;50.952;6.930;2024-01-06T15:22:43;6.40;99.90
19945;DHT22;10134;50.952;6.930;2024-01-06T15:25:12;6.40;99.90
19945;DHT22;10134;50.952;6.930;2024-01-06T15:27:41;6.40;99.90
19945;DHT22;10134;50.952;6.930;2024-01-06T15:30:10;6.40;99.90
19945;DHT22;10134;50.952;6.930;2024-01-06T15:32:41;6.40;99.90
19945;DHT22;10134;50.952;6.930;2024-01-06T15:35:12;6.40;99.90
19945;DHT22;10134;50.952;6.930;2024-01-06T15:37:40;6.40;99.90
19945;DHT22;10134;50.952;6.930;2024-01-06T15:40:09;6.40;99.90
19945;DHT22;10134;50.952;6.930;2024-01-06T15:42:38;6.30;99.90
19945;DHT22;10134;50.952;6.930;2024-01-06T15:45:08;6.30;99.90
19945;DHT22;10134;50.952;6.930;2024-01-06T15:47:39;6.30;99.90
19945;DHT22;10134;50.952;6.930;2024-01-06T15:50:08;6.30;99.90
19945;DHT22;10134;50.952;6.930;2024-01-06T15:52:38;6.30;99.90
19945;DHT22;10134;50.952;6.930;2024-01-06T15:55:07;6.20;99.90
19945;DHT22;10134;50.952;6.930;2024-01-06T15:57:38;6.20;99.90
19945;DHT22;10134;50.952;6.930;2024-01-06T16:00:09;6.20;99.90